sensor_id;sensor_type;location;lat;lon;timestamp;P1;durP1;ratioP1;P2;durP2;ratioP2
70026;SDS011;57506;50.092;15.804;2024-02-15T00:00:41;17.67;;;16.57;;
70026;SDS011;57506;50.092;15.804;2024-02-15T00:03:08;18.13;;;17.02;;
70026;SDS011;57506;50.092;15.804;2024-02-15T00:05:38;21.45;;;20.05;;
70026;SDS011;57506;50.092;15.804;2024-02-15T00:08:04;18.20;;;17.10;;
70026;SDS011;57506;50.092;15.804;2024-02-15T00:10:29;18.60;;;17.43;;
70026;SDS011;57506;50.092;15.804;2024-02-15T00:12:55;17.73;;;16.63;;
70026;SDS011;57506;50.092;15.804;2024-02-15T00:15:20;18.13;;;17.02;;
70026;SDS011;57506;50.092;15.804;2024-02-15T00:17:46;18.93;;;17.73;;
70026;SDS011;57506;50.092;15.804;2024-02-15T00:20:12;18.63;;;17.45;;
70026;SDS011;57506;50.092;15.804;2024-02-15T00:22:38;20.67;;;19.37;;
70026;SDS011;57506;50.092;15.804;2024-02-15T00:25:06;18.05;;;16.95;;
70026;SDS011;57506;50.092;15.804;2024-02-15T00:27:34;19.08;;;17.88;;
70026;SDS011;57506;50.092;15.804;2024-02-15T00:30:00;18.50;;;17.40;;
70026;SDS011;57506;50.092;15.804;2024-02-15T00:32:26;18.95;;;17.75;;
70026;SDS011;57506;50.092;15.804;2024-02-15T00:34:52;18.23;;;17.13;;
70026;SDS011;57506;50.092;15.804;2024-02-15T00:37:18;17.63;;;16.52;;
70026;SDS011;57506;50.092;15.804;2024-02-15T00:39:44;19.03;;;17.83;;
70026;SDS011;57506;50.092;15.804;2024-02-15T00:42:10;17.67;;;16.57;;
70026;SDS011;57506;50.092;15.804;2024-02-15T00:44:35;18.10;;;17.00;;
70026;SDS011;57506;50.092;15.804;2024-02-15T00:47:02;18.35;;;17.25;;
70026;SDS011;57506;50.092;15.804;2024-02-15T00:49:27;19.00;;;17.80;;
70026;SDS011;57506;50.092;15.804;2024-02-15T00:51:53;23.53;;;21.93;;
70026;SDS011;57506;50.092;15.804;2024-02-15T00:54:19;18.90;;;17.70;;
70026;SDS011;57506;50.092;15.804;2024-02-15T00:56:44;27.93;;;21.37;;
70026;SDS011;57506;50.092;15.804;2024-02-15T00:59:10;18.87;;;17.67;;
70026;SDS011;57506;50.092;15.804;2024-02-15T01:01:36;20.58;;;19.27;;
70026;SDS011;57506;50.092;15.804;2024-02-15T01:04:05;18.80;;;17.60;;
70026;SDS011;57506;50.092;15.804;2024-02-15T01:06:31;18.70;;;17.50;;
70026;SDS011;57506;50.092;15.804;2024-02-15T01:08:57;17.92;;;16.83;;
70026;SDS011;57506;50.092;15.804;2024-02-15T01:11:23;17.97;;;16.87;;
70026;SDS011;57506;50.092;15.804;2024-02-15T01:13:49;17.70;;;16.60;;
70026;SDS011;57506;50.092;15.804;2024-02-15T01:16:16;18.20;;;17.10;;
70026;SDS011;57506;50.092;15.804;2024-02-15T01:18:41;17.30;;;16.20;;
70026;SDS011;57506;50.092;15.804;2024-02-15T01:21:07;17.90;;;16.80;;
70026;SDS011;57506;50.092;15.804;2024-02-15T01:23:33;18.13;;;17.02;;
70026;SDS011;57506;50.092;15.804;2024-02-15T01:26:02;18.60;;;17.45;;
70026;SDS011;57506;50.092;15.804;2024-02-15T01:28:28;18.80;;;17.60;;
70026;SDS011;57506;50.092;15.804;2024-02-15T01:30:53;18.23;;;17.13;;
70026;SDS011;57506;50.092;15.804;2024-02-15T01:33:19;17.80;;;16.70;;
70026;SDS011;57506;50.092;15.804;2024-02-15T01:35:45;18.13;;;17.03;;
70026;SDS011;57506;50.092;15.804;2024-02-15T01:38:11;17.20;;;16.10;;
70026;SDS011;57506;50.092;15.804;2024-02-15T01:40:36;18.50;;;17.40;;
70026;SDS011;57506;50.092;15.804;2024-02-15T01:43:03;18.45;;;17.35;;
70026;SDS011;57506;50.092;15.804;2024-02-15T01:45:28;17.73;;;16.63;;
70026;SDS011;57506;50.092;15.804;2024-02-15T01:47:54;19.83;;;18.63;;
70026;SDS011;57506;50.092;15.804;2024-02-15T01:50:21;18.02;;;16.92;;
70026;SDS011;57506;50.092;15.804;2024-02-15T01:52:49;18.05;;;16.95;;
70026;SDS011;57506;50.092;15.804;2024-02-15T01:55:20;18.40;;;17.30;;
70026;SDS011;57506;50.092;15.804;2024-02-15T01:57:46;17.85;;;16.75;;
70026;SDS011;57506;50.092;15.804;2024-02-15T02:00:13;18.05;;;16.95;;
70026;SDS011;57506;50.092;15.804;2024-02-15T02:02:42;18.13;;;17.02;;
70026;SDS011;57506;50.092;15.804;2024-02-15T02:05:09;24.80;;;23.27;;
70026;SDS011;57506;50.092;15.804;2024-02-15T02:07:35;18.67;;;17.47;;
70026;SDS011;57506;50.092;15.804;2024-02-15T02:10:02;18.23;;;17.13;;
70026;SDS011;57506;50.092;15.804;2024-02-15T02:12:28;17.57;;;16.47;;
70026;SDS011;57506;50.092;15.804;2024-02-15T02:14:54;18.70;;;17.50;;
70026;SDS011;57506;50.092;15.804;2024-02-15T02:17:19;18.60;;;17.42;;
70026;SDS011;57506;50.092;15.804;2024-02-15T02:19:45;18.23;;;17.13;;
70026;SDS011;57506;50.092;15.804;2024-02-15T02:22:11;18.70;;;17.50;;
70026;SDS011;57506;50.092;15.804;2024-02-15T02:24:40;18.40;;;17.30;;
70026;SDS011;57506;50.092;15.804;2024-02-15T02:27:13;18.20;;;17.10;;
70026;SDS011;57506;50.092;15.804;2024-02-15T02:29:43;18.70;;;17.50;;
70026;SDS011;57506;50.092;15.804;2024-02-15T02:32:11;18.60;;;17.45;;
70026;SDS011;57506;50.092;15.804;2024-02-15T02:34:38;17.80;;;16.70;;
70026;SDS011;57506;50.092;15.804;2024-02-15T02:37:06;18.35;;;17.17;;
70026;SDS011;57506;50.092;15.804;2024-02-15T02:39:33;18.30;;;17.20;;
70026;SDS011;57506;50.092;15.804;2024-02-15T02:41:59;18.45;;;17.35;;
70026;SDS011;57506;50.092;15.804;2024-02-15T02:44:24;22.50;;;21.07;;
70026;SDS011;57506;50.092;15.804;2024-02-15T02:46:50;18.23;;;17.13;;
70026;SDS011;57506;50.092;15.804;2024-02-15T02:49:16;18.83;;;17.63;;
70026;SDS011;57506;50.092;15.804;2024-02-15T02:51:41;17.57;;;16.47;;
70026;SDS011;57506;50.092;15.804;2024-02-15T02:54:07;18.20;;;17.10;;
70026;SDS011;57506;50.092;15.804;2024-02-15T02:56:33;17.80;;;16.70;;
70026;SDS011;57506;50.092;15.804;2024-02-15T02:58:59;17.83;;;16.73;;
70026;SDS011;57506;50.092;15.804;2024-02-15T03:01:25;17.65;;;16.55;;
70026;SDS011;57506;50.092;15.804;2024-02-15T03:03:51;17.80;;;16.70;;
70026;SDS011;57506;50.092;15.804;2024-02-15T03:06:21;18.97;;;17.70;;
70026;SDS011;57506;50.092;15.804;2024-02-15T03:08:46;23.55;;;22.00;;
70026;SDS011;57506;50.092;15.804;2024-02-15T03:11:12;17.73;;;16.63;;
70026;SDS011;57506;50.092;15.804;2024-02-15T03:13:39;20.73;;;19.42;;
70026;SDS011;57506;50.092;15.804;2024-02-15T03:16:05;18.43;;;17.33;;
70026;SDS011;57506;50.092;15.804;2024-02-15T03:18:31;17.95;;;16.85;;
70026;SDS011;57506;50.092;15.804;2024-02-15T03:20:58;18.15;;;17.05;;
70026;SDS011;57506;50.092;15.804;2024-02-15T03:23:23;17.43;;;16.33;;
70026;SDS011;57506;50.092;15.804;2024-02-15T03:25:49;17.90;;;16.80;;
70026;SDS011;57506;50.092;15.804;2024-02-15T03:28:15;18.17;;;17.08;;
70026;SDS011;57506;50.092;15.804;2024-02-15T03:30:41;18.03;;;16.93;;
70026;SDS011;57506;50.092;15.804;2024-02-15T03:33:08;18.85;;;17.65;;
70026;SDS011;57506;50.092;15.804;2024-02-15T03:35:34;19.27;;;18.08;;
70026;SDS011;57506;50.092;15.804;2024-02-15T03:38:00;18.27;;;17.17;;
70026;SDS011;57506;50.092;15.804;2024-02-15T03:40:28;18.23;;;17.13;;
70026;SDS011;57506;50.092;15.804;2024-02-15T03:42:55;17.20;;;16.10;;
70026;SDS011;57506;50.092;15.804;2024-02-15T03:45:21;17.77;;;16.67;;
70026;SDS011;57506;50.092;15.804;2024-02-15T03:47:53;18.10;;;17.00;;
70026;SDS011;57506;50.092;15.804;2024-02-15T03:50:20;17.93;;;16.83;;
70026;SDS011;57506;50.092;15.804;2024-02-15T03:52:49;18.42;;;17.33;;
70026;SDS011;57506;50.092;15.804;2024-02-15T03:55:17;18.95;;;17.75;;
70026;SDS011;57506;50.092;15.804;2024-02-15T03:57:43;17.63;;;16.52;;
70026;SDS011;57506;50.092;15.804;2024-02-15T04:00:10;18.00;;;16.90;;
70026;SDS011;57506;50.092;15.804;2024-02-15T04:02:36;17.83;;;16.73;;
70026;SDS011;57506;50.092;15.804;2024-02-15T04:05:05;18.27;;;17.17;;
70026;SDS011;57506;50.092;15.804;2024-02-15T04:07:32;18.17;;;17.08;;
70026;SDS011;57506;50.092;15.804;2024-02-15T04:09:58;17.73;;;16.63;;
70026;SDS011;57506;50.092;15.804;2024-02-15T04:12:26;18.08;;;16.98;;
70026;SDS011;57506;50.092;15.804;2024-02-15T04:14:52;18.88;;;17.67;;
70026;SDS011;57506;50.092;15.804;2024-02-15T04:17:17;18.07;;;16.97;;
70026;SDS011;57506;50.092;15.804;2024-02-15T04:19:46;17.60;;;16.50;;
70026;SDS011;57506;50.092;15.804;2024-02-15T04:22:13;20.23;;;18.98;;
70026;SDS011;57506;50.092;15.804;2024-02-15T04:24:41;17.85;;;16.75;;
70026;SDS011;57506;50.092;15.804;2024-02-15T04:27:07;18.10;;;17.00;;
70026;SDS011;57506;50.092;15.804;2024-02-15T04:29:38;20.67;;;19.27;;
70026;SDS011;57506;50.092;15.804;2024-02-15T04:32:09;19.38;;;18.17;;
70026;SDS011;57506;50.092;15.804;2024-02-15T04:34:39;19.65;;;18.45;;
70026;SDS011;57506;50.092;15.804;2024-02-15T04:37:05;17.70;;;16.60;;
70026;SDS011;57506;50.092;15.804;2024-02-15T04:39:36;17.95;;;16.85;;
70026;SDS011;57506;50.092;15.804;2024-02-15T04:42:02;18.17;;;17.03;;
70026;SDS011;57506;50.092;15.804;2024-02-15T04:44:29;20.08;;;18.80;;
70026;SDS011;57506;50.092;15.804;2024-02-15T04:46:55;18.23;;;17.13;;
70026;SDS011;57506;50.092;15.804;2024-02-15T04:49:20;18.40;;;17.30;;
70026;SDS011;57506;50.092;15.804;2024-02-15T04:51:47;18.70;;;17.50;;
70026;SDS011;57506;50.092;15.804;2024-02-15T04:54:14;20.33;;;19.02;;
70026;SDS011;57506;50.092;15.804;2024-02-15T04:56:40;18.83;;;17.63;;
70026;SDS011;57506;50.092;15.804;2024-02-15T04:59:09;18.00;;;16.90;;
70026;SDS011;57506;50.092;15.804;2024-02-15T05:01:39;17.88;;;16.77;;
70026;SDS011;57506;50.092;15.804;2024-02-15T05:04:08;18.45;;;17.35;;
70026;SDS011;57506;50.092;15.804;2024-02-15T05:06:35;17.77;;;16.67;;
70026;SDS011;57506;50.092;15.804;2024-02-15T05:09:02;17.70;;;16.60;;
70026;SDS011;57506;50.092;15.804;2024-02-15T05:11:33;18.30;;;17.20;;
70026;SDS011;57506;50.092;15.804;2024-02-15T05:14:04;17.63;;;16.52;;
70026;SDS011;57506;50.092;15.804;2024-02-15T05:16:32;17.90;;;16.80;;
70026;SDS011;57506;50.092;15.804;2024-02-15T05:18:58;17.70;;;16.60;;
70026;SDS011;57506;50.092;15.804;2024-02-15T05:21:23;16.85;;;15.75;;
70026;SDS011;57506;50.092;15.804;2024-02-15T05:23:49;18.07;;;16.97;;
70026;SDS011;57506;50.092;15.804;2024-02-15T05:26:18;18.20;;;17.10;;
70026;SDS011;57506;50.092;15.804;2024-02-15T05:28:49;18.08;;;16.77;;
70026;SDS011;57506;50.092;15.804;2024-02-15T05:31:16;17.70;;;16.60;;
70026;SDS011;57506;50.092;15.804;2024-02-15T05:33:45;16.97;;;15.87;;
70026;SDS011;57506;50.092;15.804;2024-02-15T05:36:18;18.40;;;17.30;;
70026;SDS011;57506;50.092;15.804;2024-02-15T05:38:52;17.77;;;16.67;;
70026;SDS011;57506;50.092;15.804;2024-02-15T05:41:19;17.80;;;16.70;;
70026;SDS011;57506;50.092;15.804;2024-02-15T05:43:46;18.05;;;16.95;;
70026;SDS011;57506;50.092;15.804;2024-02-15T05:46:13;18.40;;;17.30;;
70026;SDS011;57506;50.092;15.804;2024-02-15T05:48:39;19.00;;;17.80;;
70026;SDS011;57506;50.092;15.804;2024-02-15T05:51:05;18.63;;;17.47;;
70026;SDS011;57506;50.092;15.804;2024-02-15T05:53:32;18.08;;;16.98;;
70026;SDS011;57506;50.092;15.804;2024-02-15T05:56:01;18.33;;;17.23;;
70026;SDS011;57506;50.092;15.804;2024-02-15T05:58:29;17.70;;;16.60;;
70026;SDS011;57506;50.092;15.804;2024-02-15T06:00:55;18.35;;;17.25;;
70026;SDS011;57506;50.092;15.804;2024-02-15T06:03:26;17.47;;;16.37;;
70026;SDS011;57506;50.092;15.804;2024-02-15T06:05:52;17.38;;;16.27;;
70026;SDS011;57506;50.092;15.804;2024-02-15T06:08:23;18.27;;;17.17;;
70026;SDS011;57506;50.092;15.804;2024-02-15T06:10:52;18.23;;;17.10;;
70026;SDS011;57506;50.092;15.804;2024-02-15T06:13:18;18.00;;;16.90;;
70026;SDS011;57506;50.092;15.804;2024-02-15T06:15:45;17.37;;;16.27;;
70026;SDS011;57506;50.092;15.804;2024-02-15T06:18:14;17.70;;;16.60;;
70026;SDS011;57506;50.092;15.804;2024-02-15T06:20:41;18.70;;;17.50;;
70026;SDS011;57506;50.092;15.804;2024-02-15T06:23:08;18.10;;;17.00;;
70026;SDS011;57506;50.092;15.804;2024-02-15T06:25:36;18.13;;;17.03;;
70026;SDS011;57506;50.092;15.804;2024-02-15T06:28:02;17.80;;;16.70;;
70026;SDS011;57506;50.092;15.804;2024-02-15T06:30:38;18.08;;;16.98;;
70026;SDS011;57506;50.092;15.804;2024-02-15T06:33:23;19.42;;;18.23;;
70026;SDS011;57506;50.092;15.804;2024-02-15T06:36:08;18.33;;;17.23;;
70026;SDS011;57506;50.092;15.804;2024-02-15T06:38:52;17.20;;;16.10;;
70026;SDS011;57506;50.092;15.804;2024-02-15T06:41:36;18.45;;;17.35;;
70026;SDS011;57506;50.092;15.804;2024-02-15T06:44:02;18.63;;;17.45;;
70026;SDS011;57506;50.092;15.804;2024-02-15T06:46:27;18.33;;;17.23;;
70026;SDS011;57506;50.092;15.804;2024-02-15T06:48:53;19.97;;;18.73;;
70026;SDS011;57506;50.092;15.804;2024-02-15T06:51:19;18.75;;;17.55;;
70026;SDS011;57506;50.092;15.804;2024-02-15T06:53:45;18.88;;;17.67;;
70026;SDS011;57506;50.092;15.804;2024-02-15T06:56:11;18.93;;;17.73;;
70026;SDS011;57506;50.092;15.804;2024-02-15T06:58:39;17.88;;;16.77;;
70026;SDS011;57506;50.092;15.804;2024-02-15T07:01:07;18.88;;;17.67;;
70026;SDS011;57506;50.092;15.804;2024-02-15T07:03:33;18.38;;;17.27;;
70026;SDS011;57506;50.092;15.804;2024-02-15T07:05:59;18.20;;;17.10;;
70026;SDS011;57506;50.092;15.804;2024-02-15T07:08:24;18.00;;;16.90;;
70026;SDS011;57506;50.092;15.804;2024-02-15T07:10:50;18.20;;;17.10;;
70026;SDS011;57506;50.092;15.804;2024-02-15T07:13:16;22.20;;;20.00;;
70026;SDS011;57506;50.092;15.804;2024-02-15T07:15:42;18.87;;;17.67;;
70026;SDS011;57506;50.092;15.804;2024-02-15T07:18:09;20.73;;;19.43;;
70026;SDS011;57506;50.092;15.804;2024-02-15T07:20:35;19.27;;;18.08;;
70026;SDS011;57506;50.092;15.804;2024-02-15T07:23:01;17.50;;;16.40;;
70026;SDS011;57506;50.092;15.804;2024-02-15T07:25:28;17.90;;;16.80;;
70026;SDS011;57506;50.092;15.804;2024-02-15T07:27:54;19.10;;;17.90;;
70026;SDS011;57506;50.092;15.804;2024-02-15T07:30:21;18.92;;;17.73;;
70026;SDS011;57506;50.092;15.804;2024-02-15T07:32:48;18.90;;;17.70;;
70026;SDS011;57506;50.092;15.804;2024-02-15T07:35:14;18.83;;;17.63;;
70026;SDS011;57506;50.092;15.804;2024-02-15T07:37:50;20.20;;;18.90;;
70026;SDS011;57506;50.092;15.804;2024-02-15T07:40:18;20.13;;;18.92;;
70026;SDS011;57506;50.092;15.804;2024-02-15T07:42:43;18.80;;;17.60;;
70026;SDS011;57506;50.092;15.804;2024-02-15T07:45:09;19.57;;;18.37;;
70026;SDS011;57506;50.092;15.804;2024-02-15T07:47:36;19.40;;;18.20;;
70026;SDS011;57506;50.092;15.804;2024-02-15T07:50:02;19.20;;;18.00;;
70026;SDS011;57506;50.092;15.804;2024-02-15T07:52:28;19.02;;;17.83;;
70026;SDS011;57506;50.092;15.804;2024-02-15T07:54:54;19.30;;;18.10;;
70026;SDS011;57506;50.092;15.804;2024-02-15T07:57:20;19.07;;;17.87;;
70026;SDS011;57506;50.092;15.804;2024-02-15T07:59:45;18.90;;;17.70;;
70026;SDS011;57506;50.092;15.804;2024-02-15T08:02:13;19.70;;;18.50;;
70026;SDS011;57506;50.092;15.804;2024-02-15T08:04:42;19.10;;;17.90;;
70026;SDS011;57506;50.092;15.804;2024-02-15T08:07:09;22.52;;;20.98;;
70026;SDS011;57506;50.092;15.804;2024-02-15T08:09:39;20.77;;;19.23;;
70026;SDS011;57506;50.092;15.804;2024-02-15T08:12:06;18.95;;;17.75;;
70026;SDS011;57506;50.092;15.804;2024-02-15T08:14:32;19.67;;;18.47;;
70026;SDS011;57506;50.092;15.804;2024-02-15T08:16:58;21.13;;;19.70;;
70026;SDS011;57506;50.092;15.804;2024-02-15T08:19:23;19.37;;;18.17;;
70026;SDS011;57506;50.092;15.804;2024-02-15T08:21:49;18.55;;;17.42;;
70026;SDS011;57506;50.092;15.804;2024-02-15T08:24:16;20.20;;;19.00;;
70026;SDS011;57506;50.092;15.804;2024-02-15T08:26:42;20.80;;;19.50;;
70026;SDS011;57506;50.092;15.804;2024-02-15T08:29:08;18.67;;;17.50;;
70026;SDS011;57506;50.092;15.804;2024-02-15T08:31:34;19.25;;;18.05;;
70026;SDS011;57506;50.092;15.804;2024-02-15T08:34:03;18.93;;;17.73;;
70026;SDS011;57506;50.092;15.804;2024-02-15T08:36:35;19.27;;;18.08;;
70026;SDS011;57506;50.092;15.804;2024-02-15T08:39:01;19.83;;;18.63;;
70026;SDS011;57506;50.092;15.804;2024-02-15T08:41:29;18.77;;;17.60;;
70026;SDS011;57506;50.092;15.804;2024-02-15T08:43:55;19.52;;;18.33;;
70026;SDS011;57506;50.092;15.804;2024-02-15T08:46:25;19.17;;;17.97;;
70026;SDS011;57506;50.092;15.804;2024-02-15T08:48:52;19.45;;;18.25;;
70026;SDS011;57506;50.092;15.804;2024-02-15T08:51:17;20.02;;;18.73;;
70026;SDS011;57506;50.092;15.804;2024-02-15T08:53:45;19.02;;;17.83;;
70026;SDS011;57506;50.092;15.804;2024-02-15T08:56:11;23.53;;;21.50;;
70026;SDS011;57506;50.092;15.804;2024-02-15T08:58:36;19.10;;;17.90;;
70026;SDS011;57506;50.092;15.804;2024-02-15T09:01:04;19.13;;;17.93;;
70026;SDS011;57506;50.092;15.804;2024-02-15T09:03:32;18.67;;;17.52;;
70026;SDS011;57506;50.092;15.804;2024-02-15T09:05:58;19.45;;;18.25;;
70026;SDS011;57506;50.092;15.804;2024-02-15T09:08:28;19.23;;;18.02;;
70026;SDS011;57506;50.092;15.804;2024-02-15T09:10:55;20.73;;;19.43;;
70026;SDS011;57506;50.092;15.804;2024-02-15T09:13:22;20.50;;;19.25;;
70026;SDS011;57506;50.092;15.804;2024-02-15T09:15:48;19.73;;;18.53;;
70026;SDS011;57506;50.092;15.804;2024-02-15T09:18:14;18.58;;;17.42;;
70026;SDS011;57506;50.092;15.804;2024-02-15T09:20:39;19.77;;;18.58;;
70026;SDS011;57506;50.092;15.804;2024-02-15T09:23:10;19.85;;;18.65;;
70026;SDS011;57506;50.092;15.804;2024-02-15T09:25:40;19.53;;;18.33;;
70026;SDS011;57506;50.092;15.804;2024-02-15T09:28:10;19.92;;;18.73;;
70026;SDS011;57506;50.092;15.804;2024-02-15T09:30:35;19.30;;;18.10;;
70026;SDS011;57506;50.092;15.804;2024-02-15T09:33:01;20.60;;;19.30;;
70026;SDS011;57506;50.092;15.804;2024-02-15T09:35:30;19.05;;;17.85;;
70026;SDS011;57506;50.092;15.804;2024-02-15T09:37:56;19.88;;;18.67;;
70026;SDS011;57506;50.092;15.804;2024-02-15T09:40:22;18.88;;;17.67;;
70026;SDS011;57506;50.092;15.804;2024-02-15T09:42:54;19.45;;;18.25;;
70026;SDS011;57506;50.092;15.804;2024-02-15T09:45:20;21.03;;;19.70;;
70026;SDS011;57506;50.092;15.804;2024-02-15T09:47:46;20.90;;;19.60;;
70026;SDS011;57506;50.092;15.804;2024-02-15T09:50:15;20.20;;;19.00;;
70026;SDS011;57506;50.092;15.804;2024-02-15T09:55:11;21.93;;;20.63;;
70026;SDS011;57506;50.092;15.804;2024-02-15T09:57:38;21.38;;;20.08;;
70026;SDS011;57506;50.092;15.804;2024-02-15T10:00:06;21.00;;;19.70;;
70026;SDS011;57506;50.092;15.804;2024-02-15T10:02:33;21.00;;;19.70;;
70026;SDS011;57506;50.092;15.804;2024-02-15T10:05:03;21.48;;;20.17;;
70026;SDS011;57506;50.092;15.804;2024-02-15T10:07:29;22.30;;;20.90;;
70026;SDS011;57506;50.092;15.804;2024-02-15T10:09:55;21.42;;;20.13;;
70026;SDS011;57506;50.092;15.804;2024-02-15T10:12:20;21.40;;;20.10;;
70026;SDS011;57506;50.092;15.804;2024-02-15T10:14:50;23.00;;;21.63;;
70026;SDS011;57506;50.092;15.804;2024-02-15T10:17:18;21.50;;;20.20;;
70026;SDS011;57506;50.092;15.804;2024-02-15T10:19:44;21.40;;;20.10;;
70026;SDS011;57506;50.092;15.804;2024-02-15T10:22:12;21.90;;;20.60;;
70026;SDS011;57506;50.092;15.804;2024-02-15T10:24:39;21.88;;;20.58;;
70026;SDS011;57506;50.092;15.804;2024-02-15T10:27:06;21.40;;;20.10;;
70026;SDS011;57506;50.092;15.804;2024-02-15T10:29:35;21.30;;;20.00;;
70026;SDS011;57506;50.092;15.804;2024-02-15T10:32:00;20.57;;;19.27;;
70026;SDS011;57506;50.092;15.804;2024-02-15T10:34:27;22.33;;;20.98;;
70026;SDS011;57506;50.092;15.804;2024-02-15T10:36:54;21.05;;;19.75;;
70026;SDS011;57506;50.092;15.804;2024-02-15T10:39:22;20.70;;;19.40;;
70026;SDS011;57506;50.092;15.804;2024-02-15T10:41:53;21.80;;;20.50;;
70026;SDS011;57506;50.092;15.804;2024-02-15T10:46:49;20.10;;;18.90;;
70026;SDS011;57506;50.092;15.804;2024-02-15T10:49:20;22.13;;;20.73;;
70026;SDS011;57506;50.092;15.804;2024-02-15T10:51:57;21.08;;;19.77;;
70026;SDS011;57506;50.092;15.804;2024-02-15T10:57:23;21.77;;;20.47;;
70026;SDS011;57506;50.092;15.804;2024-02-15T10:59:55;20.58;;;19.27;;
70026;SDS011;57506;50.092;15.804;2024-02-15T11:02:28;21.67;;;20.38;;
70026;SDS011;57506;50.092;15.804;2024-02-15T11:04:58;19.40;;;18.20;;
70026;SDS011;57506;50.092;15.804;2024-02-15T11:07:30;22.15;;;20.85;;
70026;SDS011;57506;50.092;15.804;2024-02-15T11:09:57;21.07;;;19.77;;
70026;SDS011;57506;50.092;15.804;2024-02-15T11:12:27;20.88;;;19.58;;
70026;SDS011;57506;50.092;15.804;2024-02-15T11:14:54;21.40;;;20.10;;
70026;SDS011;57506;50.092;15.804;2024-02-15T11:23:01;20.30;;;19.10;;
70026;SDS011;57506;50.092;15.804;2024-02-15T11:25:36;21.25;;;19.95;;
70026;SDS011;57506;50.092;15.804;2024-02-15T11:28:45;22.13;;;20.83;;
70026;SDS011;57506;50.092;15.804;2024-02-15T11:30:56;21.67;;;20.38;;
70026;SDS011;57506;50.092;15.804;2024-02-15T11:33:27;21.10;;;19.80;;
70026;SDS011;57506;50.092;15.804;2024-02-15T11:38:39;21.83;;;20.52;;
70026;SDS011;57506;50.092;15.804;2024-02-15T11:41:06;23.50;;;21.65;;
70026;SDS011;57506;50.092;15.804;2024-02-15T11:43:51;21.25;;;19.95;;
70026;SDS011;57506;50.092;15.804;2024-02-15T11:46:24;24.38;;;22.85;;
70026;SDS011;57506;50.092;15.804;2024-02-15T11:48:54;30.00;;;22.67;;
70026;SDS011;57506;50.092;15.804;2024-02-15T11:51:27;20.98;;;19.67;;
70026;SDS011;57506;50.092;15.804;2024-02-15T11:59:09;21.55;;;20.25;;
70026;SDS011;57506;50.092;15.804;2024-02-15T12:01:43;21.50;;;20.20;;
70026;SDS011;57506;50.092;15.804;2024-02-15T12:04:28;21.42;;;20.13;;
70026;SDS011;57506;50.092;15.804;2024-02-15T12:07:14;22.67;;;21.27;;
70026;SDS011;57506;50.092;15.804;2024-02-15T12:09:59;20.60;;;19.30;;
70026;SDS011;57506;50.092;15.804;2024-02-15T12:12:53;21.63;;;20.33;;
70026;SDS011;57506;50.092;15.804;2024-02-15T12:15:37;20.60;;;19.30;;
70026;SDS011;57506;50.092;15.804;2024-02-15T12:18:21;22.20;;;20.83;;
70026;SDS011;57506;50.092;15.804;2024-02-15T12:21:05;26.40;;;24.80;;
70026;SDS011;57506;50.092;15.804;2024-02-15T12:23:32;21.17;;;19.88;;
70026;SDS011;57506;50.092;15.804;2024-02-15T12:26:00;22.40;;;21.00;;
70026;SDS011;57506;50.092;15.804;2024-02-15T12:28:28;20.80;;;19.50;;
70026;SDS011;57506;50.092;15.804;2024-02-15T12:30:55;20.48;;;19.23;;
70026;SDS011;57506;50.092;15.804;2024-02-15T12:33:22;21.90;;;20.60;;
70026;SDS011;57506;50.092;15.804;2024-02-15T12:35:49;21.83;;;20.52;;
70026;SDS011;57506;50.092;15.804;2024-02-15T12:38:16;21.90;;;20.60;;
70026;SDS011;57506;50.092;15.804;2024-02-15T12:40:41;26.43;;;24.83;;
70026;SDS011;57506;50.092;15.804;2024-02-15T12:43:09;22.75;;;21.35;;
70026;SDS011;57506;50.092;15.804;2024-02-15T12:45:36;21.95;;;20.65;;
70026;SDS011;57506;50.092;15.804;2024-02-15T12:48:08;22.50;;;21.10;;
70026;SDS011;57506;50.092;15.804;2024-02-15T12:50:36;21.98;;;20.67;;
70026;SDS011;57506;50.092;15.804;2024-02-15T12:53:01;22.65;;;21.25;;
70026;SDS011;57506;50.092;15.804;2024-02-15T12:55:37;22.55;;;21.15;;
70026;SDS011;57506;50.092;15.804;2024-02-15T12:58:07;21.83;;;20.53;;
70026;SDS011;57506;50.092;15.804;2024-02-15T13:00:38;19.92;;;18.73;;
70026;SDS011;57506;50.092;15.804;2024-02-15T13:03:05;21.70;;;20.40;;
70026;SDS011;57506;50.092;15.804;2024-02-15T13:05:39;22.50;;;21.10;;
70026;SDS011;57506;50.092;15.804;2024-02-15T13:08:04;22.50;;;21.10;;
70026;SDS011;57506;50.092;15.804;2024-02-15T13:10:34;22.58;;;21.17;;
70026;SDS011;57506;50.092;15.804;2024-02-15T13:13:00;22.05;;;20.75;;
70026;SDS011;57506;50.092;15.804;2024-02-15T13:15:26;22.15;;;20.83;;
70026;SDS011;57506;50.092;15.804;2024-02-15T13:17:55;22.47;;;21.07;;
70026;SDS011;57506;50.092;15.804;2024-02-15T13:20:21;18.95;;;17.75;;
70026;SDS011;57506;50.092;15.804;2024-02-15T13:23:03;22.20;;;20.90;;
70026;SDS011;57506;50.092;15.804;2024-02-15T13:25:47;22.20;;;20.80;;
70026;SDS011;57506;50.092;15.804;2024-02-15T13:28:14;21.50;;;20.20;;
70026;SDS011;57506;50.092;15.804;2024-02-15T13:30:40;21.73;;;20.43;;
70026;SDS011;57506;50.092;15.804;2024-02-15T13:33:08;21.23;;;19.92;;
70026;SDS011;57506;50.092;15.804;2024-02-15T13:35:34;20.65;;;19.35;;
70026;SDS011;57506;50.092;15.804;2024-02-15T13:38:01;21.90;;;20.60;;
70026;SDS011;57506;50.092;15.804;2024-02-15T13:40:27;22.73;;;21.33;;
70026;SDS011;57506;50.092;15.804;2024-02-15T13:42:56;21.17;;;19.88;;
70026;SDS011;57506;50.092;15.804;2024-02-15T13:45:29;20.30;;;19.08;;
70026;SDS011;57506;50.092;15.804;2024-02-15T13:47:58;23.00;;;21.60;;
70026;SDS011;57506;50.092;15.804;2024-02-15T13:50:27;21.75;;;20.45;;
70026;SDS011;57506;50.092;15.804;2024-02-15T13:52:55;22.27;;;20.93;;
70026;SDS011;57506;50.092;15.804;2024-02-15T13:55:20;20.88;;;19.58;;
70026;SDS011;57506;50.092;15.804;2024-02-15T13:57:46;20.33;;;19.13;;
70026;SDS011;57506;50.092;15.804;2024-02-15T14:00:16;20.85;;;19.55;;
70026;SDS011;57506;50.092;15.804;2024-02-15T14:02:55;21.88;;;20.58;;
70026;SDS011;57506;50.092;15.804;2024-02-15T14:05:25;22.20;;;20.88;;
70026;SDS011;57506;50.092;15.804;2024-02-15T14:08:04;21.80;;;20.50;;
70026;SDS011;57506;50.092;15.804;2024-02-15T14:10:31;19.53;;;18.33;;
70026;SDS011;57506;50.092;15.804;2024-02-15T14:13:00;21.30;;;20.00;;
70026;SDS011;57506;50.092;15.804;2024-02-15T14:15:33;21.92;;;20.63;;
70026;SDS011;57506;50.092;15.804;2024-02-15T14:18:02;20.67;;;19.38;;
70026;SDS011;57506;50.092;15.804;2024-02-15T14:20:29;23.10;;;21.70;;
70026;SDS011;57506;50.092;15.804;2024-02-15T14:22:55;19.27;;;18.07;;
70026;SDS011;57506;50.092;15.804;2024-02-15T14:25:24;21.08;;;19.77;;
70026;SDS011;57506;50.092;15.804;2024-02-15T14:27:56;21.70;;;20.40;;
70026;SDS011;57506;50.092;15.804;2024-02-15T14:30:23;21.53;;;20.23;;
70026;SDS011;57506;50.092;15.804;2024-02-15T14:33:07;21.92;;;20.63;;
70026;SDS011;57506;50.092;15.804;2024-02-15T14:35:36;21.90;;;20.60;;